Time;durP1;ratioP1;P1;durP2;ratioP2;P2;SDS_P1;SDS_P2;PMS_P1;PMS_P2;Temp;Humidity;BMP_temperature;BMP_pressure;BME280_temperature;BME280_humidity;BME280_pressure;Samples;Min_cycle;Max_cycle;Signal;HPM_P1;HPM_P2
2022/05/01 00:01:52;;;;;;;4.93;4.53;;;;;;;14.84;52.42;100008.94;5031260;28;20026;-88
2022/05/01 00:04:17;;;;;;;7.75;5.22;;;;;;;14.50;52.36;99945.13;5031595;28;20036;-88
2022/05/01 00:06:43;;;;;;;5.93;5.32;;;;;;;14.14;52.35;99889.44;5031762;28;20486;-88
2022/05/01 00:09:08;;;;;;;5.18;4.68;;;;;;;14.91;52.26;100009.03;5031340;28;20030;-88
2022/05/01 00:11:34;;;;;;;7.63;5.35;;;;;;;14.20;52.37;99928.50;5031261;28;20025;-88
2022/05/01 00:13:59;;;;;;;7.28;4.90;;;;;;;14.49;52.52;99960.25;5031093;28;20025;-87
2022/05/01 00:16:25;;;;;;;5.53;4.70;;;;;;;14.55;52.22;99987.88;5015153;28;20076;-88
2022/05/01 00:18:50;;;;;;;5.22;4.72;;;;;;;14.11;52.39;99927.81;5035225;28;20032;-89
2022/05/01 00:21:15;;;;;;;6.50;4.32;;;;;;;14.41;52.63;99967.50;5035015;28;20018;-88
2022/05/01 00:23:41;;;;;;;5.78;4.70;;;;;;;14.47;52.83;99977.38;5035146;28;20025;-88
2022/05/01 00:26:07;;;;;;;8.10;5.20;;;;;;;14.01;52.74;99900.75;5035227;28;20021;-88
2022/05/01 00:28:36;;;;;;;6.25;5.25;;;;;;;14.47;52.87;99999.47;5017128;28;20017;-88
2022/05/01 00:31:05;;;;;;;6.03;5.18;;;;;;;14.54;52.97;100040.19;5017403;28;20022;-88
2022/05/01 00:36:26;;;;;;;5.32;4.65;;;;;;;14.13;53.20;99968.28;5058448;28;20029;-89
2022/05/01 00:38:57;;;;;;;6.47;4.72;;;;;;;14.67;53.14;100031.50;5056292;28;20033;-88
2022/05/01 00:41:23;;;;;;;5.35;4.93;;;;;;;13.71;53.31;99888.66;5038950;28;20017;-87
2022/05/01 00:43:55;;;;;;;5.20;4.70;;;;;;;14.66;53.41;100031.69;5049129;28;20041;-88
2022/05/01 00:46:20;;;;;;;8.23;5.18;;;;;;;14.59;53.29;100029.00;5016306;28;20021;-89
2022/05/01 00:48:46;;;;;;;6.45;4.88;;;;;;;14.15;53.64;99998.13;5016563;28;20124;-88
2022/05/01 00:51:11;;;;;;;7.57;4.93;;;;;;;14.05;53.40;99930.41;5034430;28;20018;-88
2022/05/01 00:53:37;;;;;;;6.75;5.15;;;;;;;14.10;53.26;99951.88;5034159;28;20546;-88
2022/05/01 00:56:03;;;;;;;6.55;4.70;;;;;;;14.09;53.34;99943.09;5034442;28;20060;-88
2022/05/01 00:58:29;;;;;;;6.28;4.65;;;;;;;14.73;53.48;100037.88;5034021;28;20049;-88
2022/05/01 01:00:55;;;;;;;5.60;5.10;;;;;;;13.86;53.32;99890.22;5034472;28;20490;-88
2022/05/01 01:03:21;;;;;;;5.88;5.22;;;;;;;14.54;53.27;100003.00;5034125;28;20014;-88
2022/05/01 01:05:47;;;;;;;6.60;4.90;;;;;;;14.20;53.59;99941.78;5016668;28;20555;-88
2022/05/01 01:08:13;;;;;;;7.45;5.57;;;;;;;14.01;53.47;99916.69;5015939;28;20094;-87
2022/05/01 01:10:38;;;;;;;6.93;5.18;;;;;;;14.23;53.64;100005.97;5016303;28;20100;-88
2022/05/01 01:13:04;;;;;;;7.05;5.50;;;;;;;14.07;53.89;99944.31;5033853;28;20087;-88
2022/05/01 01:15:30;;;;;;;6.57;5.80;;;;;;;14.68;53.87;100048.28;5016238;28;20033;-88
2022/05/01 01:17:56;;;;;;;7.30;5.57;;;;;;;14.35;53.91;99997.50;5015622;28;20063;-88
2022/05/01 01:20:24;;;;;;;5.97;5.25;;;;;;;14.72;53.80;100045.03;5033323;28;20048;-88
2022/05/01 01:22:51;;;;;;;6.38;5.80;;;;;;;14.51;54.00;100006.03;5033345;28;20028;-88
2022/05/01 01:25:22;;;;;;;6.50;5.88;;;;;;;13.95;53.95;99944.81;5015727;28;20100;-88
2022/05/01 01:27:50;;;;;;;7.80;5.88;;;;;;;14.37;53.90;99995.47;5032149;28;20029;-88
2022/05/01 01:32:59;;;;;;;8.35;6.40;;;;;;;14.06;54.47;99980.66;5033560;28;20505;-89
2022/05/01 01:35:26;;;;;;;7.05;5.68;;;;;;;14.41;54.70;100024.13;5033422;28;20033;-89
2022/05/01 01:37:56;;;;;;;5.95;5.35;;;;;;;14.43;54.63;100014.16;5015817;28;20501;-89
2022/05/01 01:40:31;;;;;;;8.10;6.53;;;;;;;13.91;54.53;99954.16;5015977;28;20021;-88
2022/05/01 01:42:58;;;;;;;8.07;5.88;;;;;;;14.34;54.63;100009.13;5015968;28;20028;-88
2022/05/01 01:45:28;;;;;;;6.18;5.20;;;;;;;14.10;54.57;99979.25;5033413;28;20096;-88
2022/05/01 01:48:14;;;;;;;9.00;6.10;;;;;;;14.07;54.80;99965.53;5033352;28;20025;-88
2022/05/01 01:50:41;;;;;;;6.38;5.47;;;;;;;13.87;54.80;99939.63;5032862;28;20075;-89
2022/05/01 01:53:07;;;;;;;6.88;5.45;;;;;;;14.16;54.82;99983.84;5015693;28;20056;-89
2022/05/01 01:55:33;;;;;;;6.38;5.65;;;;;;;13.68;54.96;99897.81;5015629;28;20458;-88
2022/05/01 01:57:59;;;;;;;7.22;5.72;;;;;;;13.96;54.82;99961.56;5014860;28;20088;-89
2022/05/01 02:00:25;;;;;;;6.70;5.97;;;;;;;14.30;54.74;99996.22;5014989;28;20017;-89
2022/05/01 02:03:03;;;;;;;7.35;5.50;;;;;;;14.30;54.86;99992.75;5015143;28;20029;-89
2022/05/01 02:05:29;;;;;;;8.18;5.85;;;;;;;14.25;54.69;99992.50;5015260;28;20573;-89
2022/05/01 02:07:55;;;;;;;7.88;5.50;;;;;;;13.55;54.74;99857.88;5015733;28;20109;-89
2022/05/01 02:10:21;;;;;;;5.78;5.22;;;;;;;14.18;54.35;99965.06;5015306;28;20029;-88
2022/05/01 02:12:46;;;;;;;6.32;5.60;;;;;;;14.40;54.42;99995.09;5015205;28;20075;-89
2022/05/01 02:15:12;;;;;;;6.90;5.68;;;;;;;14.49;54.40;100000.09;5015278;28;20025;-88
2022/05/01 02:17:39;;;;;;;8.20;5.65;;;;;;;13.12;54.29;99772.13;5032539;28;20025;-88
2022/05/01 02:20:05;;;;;;;10.00;6.50;;;;;;;13.70;54.22;99839.25;5015032;28;20068;-88
2022/05/01 02:22:31;;;;;;;6.50;5.30;;;;;;;14.28;54.38;99944.31;5014805;28;20020;-88
2022/05/01 02:24:56;;;;;;;8.90;5.80;;;;;;;14.44;54.58;99991.06;5032522;28;20017;-89
2022/05/01 02:27:22;;;;;;;7.32;5.68;;;;;;;14.03;54.30;99903.22;5032200;28;20398;-89
2022/05/01 02:29:47;;;;;;;8.25;6.28;;;;;;;14.14;54.28;99927.44;5032305;28;20025;-88
2022/05/01 02:32:13;;;;;;;8.80;6.13;;;;;;;14.58;54.22;99988.31;5032443;28;20032;-89
2022/05/01 02:34:40;;;;;;;7.05;5.43;;;;;;;13.90;54.38;99882.69;5014485;28;20026;-89
2022/05/01 02:37:06;;;;;;;8.98;5.93;;;;;;;14.60;54.55;99996.91;5032535;28;20026;-88
2022/05/01 02:39:35;;;;;;;7.07;6.43;;;;;;;13.97;54.49;99888.88;5014377;28;20059;-88
2022/05/01 02:42:01;;;;;;;6.72;5.45;;;;;;;14.51;54.47;99981.31;5032133;28;20102;-88
2022/05/01 02:44:26;;;;;;;10.57;6.75;;;;;;;14.04;54.42;99913.66;5014268;28;20056;-89
2022/05/01 02:46:52;;;;;;;10.93;6.78;;;;;;;14.39;54.65;99991.59;5014249;28;20014;-89
2022/05/01 02:49:17;;;;;;;10.75;8.00;;;;;;;14.21;54.49;99962.03;5031933;28;20441;-89
2022/05/01 02:51:43;;;;;;;10.52;8.15;;;;;;;14.30;54.31;99987.44;5031969;28;20028;-89
2022/05/01 02:54:08;;;;;;;14.43;8.98;;;;;;;14.08;54.48;99970.66;5032120;28;20033;-89
2022/05/01 02:56:34;;;;;;;11.15;8.27;;;;;;;13.78;54.39;99927.50;5013720;28;20025;-89
2022/05/01 02:59:00;;;;;;;10.73;7.82;;;;;;;14.18;54.66;99986.31;5031525;28;20057;-88
2022/05/01 03:01:29;;;;;;;9.85;7.88;;;;;;;14.12;54.83;99989.69;5014151;28;20502;-89
2022/05/01 03:03:54;;;;;;;10.35;8.32;;;;;;;13.76;54.62;99940.13;5013979;28;20426;-89
2022/05/01 03:06:20;;;;;;;9.00;7.43;;;;;;;13.14;54.84;99854.94;5031670;28;20017;-89
2022/05/01 03:08:45;;;;;;;8.60;7.60;;;;;;;13.85;54.96;99992.09;5031832;28;20029;-89
2022/05/01 03:11:10;;;;;;;10.15;7.07;;;;;;;13.26;54.90;99883.47;5031707;28;20052;-89
2022/05/01 03:13:36;;;;;;;8.80;6.93;;;;;;;13.38;55.08;99920.97;5014248;28;20083;-89
2022/05/01 03:16:02;;;;;;;9.90;7.13;;;;;;;12.63;55.05;99805.44;5013987;28;20025;-89
2022/05/01 03:23:55;;;;;;;7.32;6.28;;;;;;;12.78;55.26;99871.63;5031591;28;20468;-89
2022/05/01 03:26:21;;;;;;;8.95;6.55;;;;;;;13.36;55.27;99960.91;5031587;28;20025;-89
2022/05/01 03:28:47;;;;;;;7.28;6.03;;;;;;;13.66;55.03;100019.22;5031375;28;20549;-88
2022/05/01 03:31:14;;;;;;;7.38;6.22;;;;;;;12.96;55.19;99900.41;5031541;28;20078;-89
2022/05/01 03:33:39;;;;;;;8.32;6.05;;;;;;;13.66;54.76;100019.22;5013905;28;20032;-89
2022/05/01 03:36:06;;;;;;;10.00;6.30;;;;;;;13.65;54.97;100014.94;5013924;28;20506;-89
2022/05/01 03:38:39;;;;;;;7.55;6.15;;;;;;;13.67;54.69;100023.53;5031718;28;20017;-89
2022/05/01 03:41:08;;;;;;;7.75;6.00;;;;;;;13.64;54.97;100021.25;5031469;28;20027;-89
2022/05/01 03:43:34;;;;;;;7.18;6.15;;;;;;;13.51;54.68;100000.69;5031372;28;20018;-89
2022/05/01 03:46:01;;;;;;;8.27;6.13;;;;;;;13.48;54.60;100019.63;5031482;28;20505;-89
2022/05/01 03:48:27;;;;;;;7.63;5.85;;;;;;;13.47;54.99;100022.47;5031574;28;20021;-88
2022/05/01 03:50:54;;;;;;;7.45;6.57;;;;;;;13.48;55.16;100022.28;5014433;28;20029;-89
2022/05/01 03:53:20;;;;;;;8.55;6.35;;;;;;;13.17;55.22;99979.22;5035514;28;20021;-89
2022/05/01 03:55:45;;;;;;;7.65;5.88;;;;;;;13.20;54.69;99982.31;5034973;28;20033;-88
2022/05/01 03:58:11;;;;;;;10.05;7.05;;;;;;;12.63;54.99;99894.63;5017356;28;20048;-89
2022/05/01 04:00:36;;;;;;;8.35;7.50;;;;;;;12.56;54.85;99915.72;5035740;28;20120;-89
2022/05/01 04:03:02;;;;;;;8.55;7.13;;;;;;;11.01;55.23;99661.50;5017762;28;20024;-89
2022/05/01 04:05:28;;;;;;;9.25;6.90;;;;;;;12.46;54.68;99903.75;5017806;28;20029;-89
2022/05/01 04:07:54;;;;;;;8.88;7.35;;;;;;;13.39;54.95;100049.09;5035411;28;20491;-89
2022/05/01 04:10:19;;;;;;;8.02;7.18;;;;;;;13.17;55.03;100021.63;5035234;28;20056;-89
2022/05/01 04:12:45;;;;;;;7.50;6.78;;;;;;;13.12;55.12;100010.72;5035353;28;20083;-89
2022/05/01 04:15:14;;;;;;;7.47;6.13;;;;;;;12.77;55.06;99968.03;5017511;28;20026;-89
2022/05/01 04:17:40;;;;;;;9.02;7.00;;;;;;;12.88;54.79;99974.72;5017174;28;20045;-89
2022/05/01 04:20:08;;;;;;;8.98;6.53;;;;;;;13.43;55.25;100048.53;5017357;28;20029;-89
2022/05/01 04:22:45;;;;;;;8.88;7.78;;;;;;;13.04;54.76;99990.44;5017160;28;20029;-89
2022/05/01 04:25:24;;;;;;;7.97;7.18;;;;;;;13.47;55.19;100051.66;5017344;28;20543;-89
2022/05/01 04:27:59;;;;;;;10.30;7.70;;;;;;;13.44;55.12;100063.44;5034802;28;20029;-89
2022/05/01 04:30:26;;;;;;;8.63;7.72;;;;;;;13.22;54.84;100020.06;5034824;28;20033;-89
2022/05/01 04:32:57;;;;;;;10.38;7.80;;;;;;;13.54;55.13;100044.59;5034752;28;20055;-89
2022/05/01 04:35:22;;;;;;;10.95;7.95;;;;;;;13.55;55.11;100032.97;5017056;28;20036;-89
2022/05/01 04:37:48;;;;;;;11.70;7.63;;;;;;;12.79;54.79;99910.38;5016800;28;20033;-89
2022/05/01 04:40:14;;;;;;;9.13;7.57;;;;;;;13.30;54.79;99982.84;5034461;28;20068;-89
2022/05/01 04:42:41;;;;;;;10.43;7.85;;;;;;;13.21;54.65;99954.78;5016831;28;20022;-89
2022/05/01 04:45:07;;;;;;;9.18;8.27;;;;;;;13.32;54.53;99972.06;5016584;28;20026;-88
2022/05/01 04:47:33;;;;;;;9.63;7.47;;;;;;;13.50;54.63;100000.88;5034680;28;20022;-89
2022/05/01 04:49:58;;;;;;;8.85;8.00;;;;;;;12.30;54.78;99828.78;5016750;28;20021;-89
2022/05/01 04:52:24;;;;;;;9.38;8.23;;;;;;;12.53;54.91;99826.03;5016841;28;20498;-89
2022/05/01 04:54:49;;;;;;;10.40;7.97;;;;;;;13.03;55.23;99909.25;5016384;28;20017;-89
2022/05/01 04:57:15;;;;;;;9.90;8.15;;;;;;;13.23;55.08;99954.59;5033923;28;20073;-89
2022/05/01 04:59:41;;;;;;;11.20;7.68;;;;;;;13.81;55.60;100040.44;5016594;28;20483;-89
2022/05/01 05:02:06;;;;;;;11.73;8.18;;;;;;;13.80;55.61;100044.09;5034102;28;20026;-89
2022/05/01 05:04:32;;;;;;;9.32;7.65;;;;;;;13.35;55.54;99951.28;5033699;28;20030;-88
2022/05/01 05:06:57;;;;;;;10.70;7.93;;;;;;;13.81;55.40;100001.44;5033452;28;20453;-88
2022/05/01 05:12:07;;;;;;;9.25;7.28;;;;;;;13.58;55.16;99931.78;5033794;28;20031;-88
2022/05/01 05:14:33;;;;;;;7.68;6.38;;;;;;;13.64;55.01;99931.03;5016164;28;20087;-88
2022/05/01 05:17:00;;;;;;;8.73;7.00;;;;;;;14.01;55.06;99956.50;5033907;28;20022;-89
2022/05/01 05:19:26;;;;;;;7.22;5.85;;;;;;;14.44;55.12;100029.06;5016234;28;20025;-88
2022/05/01 05:21:51;;;;;;;7.82;6.40;;;;;;;14.21;55.06;99977.97;5015924;28;20025;-89
2022/05/01 05:24:17;;;;;;;7.50;6.00;;;;;;;13.87;54.95;99936.97;5015827;28;20026;-88
2022/05/01 05:26:42;;;;;;;6.90;6.03;;;;;;;12.80;54.84;99742.44;5016104;28;20049;-89
2022/05/01 05:29:08;;;;;;;8.38;5.93;;;;;;;13.41;55.05;99818.97;5033710;28;20022;-88
2022/05/01 05:31:34;;;;;;;10.73;6.75;;;;;;;14.46;55.04;99983.72;5033650;28;20105;-87
2022/05/01 05:34:00;;;;;;;8.82;7.40;;;;;;;14.36;54.93;99961.94;5033351;28;20048;-88
2022/05/01 05:36:25;;;;;;;9.23;6.55;;;;;;;14.52;54.48;99994.41;5033694;28;20029;-89
2022/05/01 05:38:51;;;;;;;9.45;7.28;;;;;;;14.84;54.83;100002.81;5016176;28;20025;-88
2022/05/01 05:41:16;;;;;;;9.98;8.10;;;;;;;14.38;55.00;99922.72;5016113;28;20044;-88
2022/05/01 05:43:41;;;;;;;9.30;7.93;;;;;;;14.43;55.14;99961.00;5015883;28;20028;-88
2022/05/01 05:46:07;;;;;;;10.40;7.32;;;;;;;15.04;55.39;100042.84;5033501;28;20021;-88
2022/05/01 05:48:32;;;;;;;9.98;7.75;;;;;;;15.21;55.03;100049.50;5015585;28;20017;-88
2022/05/01 05:50:58;;;;;;;9.00;7.72;;;;;;;14.55;55.27;99932.06;5033303;28;20029;-88
2022/05/01 05:53:23;;;;;;;7.88;7.07;;;;;;;14.75;55.11;99978.22;5015736;28;20025;-88
2022/05/01 05:55:49;;;;;;;9.10;7.32;;;;;;;15.14;55.01;100003.44;5015508;28;20029;-87
2022/05/01 05:58:15;;;;;;;8.65;7.07;;;;;;;15.48;55.13;100053.13;5033244;28;20037;-88
2022/05/01 06:00:40;;;;;;;9.23;7.50;;;;;;;15.29;55.14;100017.41;5015371;28;20021;-88
2022/05/01 06:03:06;;;;;;;7.75;5.95;;;;;;;15.11;55.10;99978.03;5015160;28;20032;-88
2022/05/01 06:05:31;;;;;;;8.43;5.80;;;;;;;15.52;55.24;100025.91;5014998;28;20112;-88
2022/05/01 06:07:57;;;;;;;7.65;6.13;;;;;;;15.40;54.74;99992.09;5014983;28;20017;-88
2022/05/01 06:10:22;;;;;;;8.05;5.78;;;;;;;15.89;54.67;100058.47;5014805;28;20180;-88
2022/05/01 06:12:48;;;;;;;7.32;6.65;;;;;;;15.68;54.57;100019.50;5032548;28;20021;-88
2022/05/01 06:15:13;;;;;;;7.78;6.53;;;;;;;15.68;54.68;100016.81;5031900;28;20453;-88
2022/05/01 06:17:39;;;;;;;6.75;5.93;;;;;;;15.78;54.42;100027.09;5014763;28;20021;-88
2022/05/01 06:20:05;;;;;;;6.97;6.28;;;;;;;15.36;54.16;99961.56;5032462;28;20025;-88
2022/05/01 06:22:30;;;;;;;6.53;5.78;;;;;;;16.00;54.33;100062.41;5014492;28;20022;-88
2022/05/01 06:24:56;;;;;;;6.60;5.50;;;;;;;16.16;53.78;100062.03;5032418;28;20521;-88
2022/05/01 06:27:21;;;;;;;6.93;4.97;;;;;;;16.02;53.46;100041.72;5032436;28;20068;-88
2022/05/01 06:29:47;;;;;;;7.45;5.57;;;;;;;16.18;53.08;100049.31;5014330;28;20028;-87
2022/05/01 06:32:18;;;;;;;6.72;5.65;;;;;;;16.09;52.66;100047.88;5032075;28;20029;-88
2022/05/01 06:34:45;;;;;;;8.63;5.38;;;;;;;16.14;52.54;100059.56;5031897;28;20017;-88
2022/05/01 06:37:11;;;;;;;7.13;5.40;;;;;;;15.27;52.37;99891.75;5031722;28;20076;-88
2022/05/01 06:39:36;;;;;;;5.72;4.70;;;;;;;15.02;52.17;99856.09;5014272;28;20021;-87
2022/05/01 06:42:02;;;;;;;6.45;4.78;;;;;;;16.55;51.86;100079.13;5014423;28;20022;-88
2022/05/01 06:44:27;;;;;;;6.35;5.78;;;;;;;16.20;51.77;100028.63;5032042;28;20065;-87
2022/05/01 06:46:53;;;;;;;6.15;5.30;;;;;;;16.56;51.99;100057.59;5014344;28;20040;-88
2022/05/01 06:49:18;;;;;;;8.57;5.97;;;;;;;15.21;51.63;99829.53;5014292;28;20025;-88
2022/05/01 06:51:45;;;;;;;8.23;5.70;;;;;;;16.11;51.18;99960.59;5031771;28;20798;-87
2022/05/01 06:54:10;;;;;;;6.05;5.00;;;;;;;16.18;51.61;99964.91;5014143;28;20501;-88
2022/05/01 06:56:36;;;;;;;6.82;5.03;;;;;;;16.76;51.18;100030.97;5013843;28;20029;-87
2022/05/01 06:59:02;;;;;;;5.28;4.68;;;;;;;16.39;51.11;99995.06;5031351;28;20057;-88
2022/05/01 07:01:27;;;;;;;5.65;5.00;;;;;;;16.96;50.81;100065.63;5014006;28;20029;-88
2022/05/01 07:03:53;;;;;;;5.22;4.65;;;;;;;17.01;50.42;100071.97;5032088;28;20048;-88
2022/05/01 07:06:18;;;;;;;6.63;4.40;;;;;;;16.36;50.63;99960.84;5032188;28;20068;-87
2022/05/01 07:08:44;;;;;;;7.80;5.10;;;;;;;17.11;50.53;100080.41;5031869;28;20072;-88
2022/05/01 07:11:09;;;;;;;6.30;4.93;;;;;;;16.96;50.53;100036.28;5014157;28;20112;-88
2022/05/01 07:13:36;;;;;;;4.68;3.92;;;;;;;17.31;49.49;100103.59;5032127;28;20104;-88
2022/05/01 07:16:02;;;;;;;4.93;3.78;;;;;;;17.13;48.67;100035.66;5032154;28;20022;-88
2022/05/01 07:18:27;;;;;;;5.18;4.20;;;;;;;16.79;48.63;99998.56;5014376;28;20422;-88
2022/05/01 07:20:53;;;;;;;4.70;3.78;;;;;;;16.64;48.62;99939.28;5031939;28;20026;-88
2022/05/01 07:23:21;;;;;;;4.57;3.85;;;;;;;16.82;48.64;99968.81;5014275;28;20112;-88
2022/05/01 07:25:47;;;;;;;4.35;3.95;;;;;;;16.96;48.07;99972.28;5013386;28;20037;-87
2022/05/01 07:28:13;;;;;;;3.97;3.58;;;;;;;17.17;47.63;99995.22;5014119;28;20478;-88
2022/05/01 07:30:38;;;;;;;5.15;4.18;;;;;;;16.53;47.38;99874.91;5032039;28;20014;-86
2022/05/01 07:33:04;;;;;;;4.97;3.92;;;;;;;17.52;47.09;100043.78;5031795;28;20025;-88
2022/05/01 07:35:29;;;;;;;4.25;3.50;;;;;;;17.26;46.85;99988.63;5014299;28;20036;-87
2022/05/01 07:37:54;;;;;;;4.28;3.83;;;;;;;17.44;46.91;100042.97;5031783;28;20022;-86
2022/05/01 07:40:24;;;;;;;7.25;4.20;;;;;;;17.52;47.00;100073.97;5014110;28;20028;-88
2022/05/01 07:42:50;;;;;;;6.13;4.32;;;;;;;17.21;47.65;100036.47;5014048;28;20018;-88
2022/05/01 07:45:16;;;;;;;4.82;3.97;;;;;;;17.46;46.17;100054.25;5013995;28;20026;-88
2022/05/01 07:47:42;;;;;;;3.63;3.28;;;;;;;17.44;45.32;100016.28;5031816;28;20505;-88
2022/05/01 07:50:08;;;;;;;4.07;3.20;;;;;;;18.08;45.01;100094.75;5014022;28;20112;-88
2022/05/01 07:52:34;;;;;;;5.30;3.53;;;;;;;17.81;44.70;100037.94;5013921;28;20080;-88
2022/05/01 07:55:00;;;;;;;3.80;3.40;;;;;;;17.62;44.15;99980.88;5013825;28;20520;-88
2022/05/01 07:57:26;;;;;;;5.20;3.55;;;;;;;18.28;43.56;100095.47;5013643;28;20573;-87
2022/05/01 07:59:52;;;;;;;4.25;3.33;;;;;;;18.36;43.02;100097.06;5030712;28;20022;-88
2022/05/01 08:02:18;;;;;;;4.57;3.05;;;;;;;18.47;42.17;100079.50;5013118;28;20494;-88
2022/05/01 08:04:43;;;;;;;3.72;3.22;;;;;;;18.32;42.06;100061.09;5013015;28;20037;-88
2022/05/01 08:07:10;;;;;;;3.88;3.38;;;;;;;18.04;41.81;99992.00;5012797;28;20025;-87
2022/05/01 08:09:36;;;;;;;3.28;2.97;;;;;;;18.10;41.87;99991.13;5013168;28;20025;-88
2022/05/01 08:12:02;;;;;;;6.30;3.58;;;;;;;18.67;41.54;100089.09;5013519;28;20022;-88
2022/05/01 08:14:27;;;;;;;5.25;3.30;;;;;;;17.55;41.88;99932.03;5042529;28;20025;-86
2022/05/01 08:16:53;;;;;;;5.85;3.47;;;;;;;18.81;40.61;100081.78;5047560;28;20014;-86
2022/05/01 08:22:05;;;;;;;4.97;3.47;;;;;;;18.91;40.33;100086.63;5048013;28;20052;-87
2022/05/01 08:24:31;;;;;;;5.40;4.00;;;;;;;18.62;39.65;100031.94;5044098;28;20636;-87
2022/05/01 08:26:56;;;;;;;3.95;3.55;;;;;;;18.97;39.86;100099.94;5030026;28;20021;-87
2022/05/01 08:29:22;;;;;;;4.50;3.25;;;;;;;18.29;40.09;99984.00;5030087;28;20490;-88
2022/05/01 08:31:47;;;;;;;4.75;3.67;;;;;;;19.00;40.19;100091.50;5029928;28;20104;-88
2022/05/01 08:34:13;;;;;;;5.35;3.70;;;;;;;19.11;39.90;100106.00;5029671;28;20422;-87
2022/05/01 08:36:39;;;;;;;6.28;4.53;;;;;;;18.87;40.11;100046.13;5029996;28;20467;-87
2022/05/01 08:39:05;;;;;;;5.40;3.67;;;;;;;19.02;40.25;100068.00;5033219;28;20029;-85
2022/05/01 08:41:32;;;;;;;4.32;3.80;;;;;;;18.73;39.95;100018.66;5015074;28;20021;-87
2022/05/01 08:43:58;;;;;;;4.43;3.70;;;;;;;19.27;39.74;100086.69;5032918;28;20032;-88
2022/05/01 08:46:36;;;;;;;4.75;4.32;;;;;;;19.53;39.39;100071.44;5032716;28;20414;-86
2022/05/01 08:49:07;;;;;;;5.28;3.80;;;;;;;19.69;39.09;100073.53;5033243;28;20095;-87
2022/05/01 08:51:40;;;;;;;5.93;3.60;;;;;;;19.63;39.01;100061.03;5033544;28;20021;-87
2022/05/01 08:54:08;;;;;;;5.05;4.40;;;;;;;19.61;39.06;100074.66;5015328;28;20079;-87
2022/05/01 08:56:35;;;;;;;4.10;3.70;;;;;;;19.67;39.07;100068.38;5033057;28;20521;-87
2022/05/01 08:59:05;;;;;;;5.45;3.60;;;;;;;19.93;38.81;100061.88;4994700;28;1130883;-87
2022/05/01 09:01:34;;;;;;;4.93;3.45;;;;;;;20.16;38.53;100063.88;5034230;28;20105;-88
2022/05/01 09:04:00;;;;;;;4.10;3.70;;;;;;;18.89;37.92;99830.00;5034637;28;20498;-87
2022/05/01 09:06:27;;;;;;;3.83;3.50;;;;;;;19.50;37.20;99906.63;5034540;28;20017;-87
2022/05/01 09:08:52;;;;;;;3.75;3.28;;;;;;;20.45;37.30;99997.84;5034645;28;20044;-87
2022/05/01 09:14:03;;;;;;;4.68;3.90;;;;;;;19.75;36.97;99833.34;5035610;28;20112;-87
2022/05/01 09:16:29;;;;;;;3.88;3.17;;;;;;;21.23;36.39;100026.25;5038034;28;20021;-85
2022/05/01 09:18:54;;;;;;;4.43;3.38;;;;;;;20.79;36.27;99963.22;5052153;28;20090;-85
2022/05/01 09:21:20;;;;;;;3.78;3.10;;;;;;;20.96;36.02;99933.81;5051449;28;20021;-85
2022/05/01 09:23:47;;;;;;;4.53;3.38;;;;;;;21.34;35.90;99952.91;5051208;28;20025;-85
2022/05/01 09:26:15;;;;;;;4.35;3.83;;;;;;;21.82;35.32;99994.69;5045080;28;20486;-87
2022/05/01 09:28:47;;;;;;;4.88;3.78;;;;;;;22.16;34.94;100022.50;5034126;28;20406;-87
2022/05/01 09:31:13;;;;;;;4.45;3.53;;;;;;;22.32;34.64;100019.03;5033891;28;20032;-87
2022/05/01 09:33:39;;;;;;;5.18;3.40;;;;;;;22.25;34.46;99979.88;5015996;28;20025;-87
2022/05/01 09:36:05;;;;;;;4.30;3.20;;;;;;;21.86;34.13;99886.44;5016280;28;20017;-87
2022/05/01 09:38:30;;;;;;;3.83;3.22;;;;;;;22.66;34.28;100010.97;5015954;28;20071;-87
2022/05/01 09:41:04;;;;;;;4.93;3.90;;;;;;;22.13;33.96;99861.63;5034373;28;20087;-87
2022/05/01 09:43:41;;;;;;;4.57;3.28;;;;;;;23.14;32.46;100003.13;5033982;28;20022;-87
2022/05/01 09:46:24;;;;;;;3.92;3.15;;;;;;;23.28;32.94;100005.44;5015946;28;20067;-87
2022/05/01 09:49:02;;;;;;;3.47;3.17;;;;;;;22.74;32.18;99962.91;5032326;28;20041;-87
2022/05/01 09:51:33;;;;;;;4.15;3.30;;;;;;;22.90;32.96;99985.53;5015457;28;20040;-87
2022/05/01 09:54:02;;;;;;;5.03;3.03;;;;;;;22.87;32.82;99931.34;5014286;28;20477;-87
2022/05/01 09:56:27;;;;;;;3.60;3.28;;;;;;;23.57;32.35;99988.03;5015516;28;20414;-87
2022/05/01 09:59:02;;;;;;;3.65;2.80;;;;;;;23.45;31.55;99906.47;5032733;28;20053;-88
2022/05/01 10:01:29;;;;;;;4.93;2.80;;;;;;;23.91;31.58;99967.13;5015006;28;20141;-87
2022/05/01 10:03:59;;;;;;;3.10;2.80;;;;;;;23.91;31.64;99939.34;5033076;28;20467;-87
2022/05/01 10:06:31;;;;;;;4.45;2.85;;;;;;;24.32;30.60;99975.59;5032879;28;20453;-87
2022/05/01 10:08:57;;;;;;;3.90;2.80;;;;;;;23.88;30.34;99942.56;5032982;28;20029;-87
2022/05/01 10:11:24;;;;;;;3.47;2.92;;;;;;;24.26;30.35;99980.13;5015279;28;20033;-86
2022/05/01 10:13:50;;;;;;;3.33;3.03;;;;;;;24.54;30.20;99964.72;5032978;28;20029;-86
2022/05/01 10:16:16;;;;;;;3.70;3.00;;;;;;;24.59;29.66;99921.56;5014827;28;20036;-86
2022/05/01 10:18:44;;;;;;;3.45;2.92;;;;;;;24.58;29.29;99903.75;5032288;28;20418;-86
2022/05/01 10:21:10;;;;;;;6.85;3.10;;;;;;;25.07;29.06;99944.00;5032300;28;20018;-86
2022/05/01 10:23:36;;;;;;;2.80;2.60;;;;;;;25.20;28.91;99944.31;5014887;28;20037;-86
2022/05/01 10:26:39;;;;;;;3.47;3.05;;;;;;;24.71;29.61;99944.59;5032420;28;20418;-86
2022/05/01 10:29:36;;;;;;;3.15;2.67;;;;;;;23.50;30.27;99847.25;4933458;29;20167;-86
2022/05/01 10:32:50;;;;;;;3.30;3.00;;;;;;;24.11;29.82;99920.63;5014541;28;20034;-86
2022/05/01 10:35:24;;;;;;;3.70;3.08;;;;;;;24.68;29.76;99933.50;5011246;28;20112;-86
2022/05/01 10:38:02;;;;;;;3.65;2.95;;;;;;;24.61;28.76;99914.03;5032277;28;20111;-86
2022/05/01 10:40:42;;;;;;;3.13;2.90;;;;;;;24.80;29.06;99930.59;5014045;28;20029;-86
2022/05/01 10:43:36;;;;;;;3.38;3.03;;;;;;;25.09;28.66;99926.44;5031747;28;20033;-87
2022/05/01 10:46:24;;;;;;;3.75;2.90;;;;;;;24.70;28.46;99877.34;5032131;28;20021;-86
2022/05/01 10:48:50;;;;;;;3.47;2.97;;;;;;;24.98;28.45;99863.47;5031998;28;20494;-86
2022/05/01 10:51:28;;;;;;;3.15;2.85;;;;;;;25.20;28.65;99902.97;5014219;28;20056;-86
2022/05/01 10:54:15;;;;;;;4.75;2.90;;;;;;;25.29;28.26;99899.53;5032159;28;20044;-86
2022/05/01 10:56:43;;;;;;;3.20;2.90;;;;;;;25.26;28.56;99897.31;5031462;28;20473;-86
2022/05/01 10:59:48;;;;;;;3.10;2.67;;;;;;;25.09;28.26;99898.63;5014047;28;20052;-86
2022/05/01 11:02:24;;;;;;;6.38;3.20;;;;;;;24.95;28.61;99871.25;4932719;29;20035;-86
2022/05/01 11:04:54;;;;;;;4.25;2.80;;;;;;;25.23;28.08;99865.41;4932858;29;20039;-86
2022/05/01 11:07:21;;;;;;;5.15;3.10;;;;;;;25.70;27.66;99896.13;4989579;28;20049;-86
2022/05/01 11:09:49;;;;;;;4.07;3.63;;;;;;;25.32;27.56;99904.41;5031991;28;20095;-86
2022/05/01 11:12:19;;;;;;;2.92;2.63;;;;;;;24.48;28.49;99866.69;5014085;28;20079;-86
2022/05/01 11:15:04;;;;;;;4.60;3.28;;;;;;;24.27;28.72;99890.03;5032332;28;20021;-86
2022/05/01 11:17:36;;;;;;;5.40;3.47;;;;;;;23.80;29.13;99889.91;5032211;28;20395;-86
2022/05/01 11:20:10;;;;;;;4.72;3.38;;;;;;;23.59;29.70;99893.44;5032528;28;20464;-86
2022/05/01 11:22:36;;;;;;;4.50;3.35;;;;;;;23.90;29.39;99883.78;5032027;28;20387;-86
2022/05/01 11:25:03;;;;;;;6.10;5.28;;;;;;;24.39;28.55;99879.03;5014467;28;20399;-86
2022/05/01 11:27:46;;;;;;;5.22;3.60;;;;;;;23.24;28.82;99706.09;5013984;28;20030;-86
2022/05/01 11:30:13;;;;;;;4.43;3.20;;;;;;;24.07;28.91;99882.56;5031934;28;20104;-86
2022/05/01 11:32:44;;;;;;;5.03;2.80;;;;;;;23.59;29.67;99870.00;5014153;28;20037;-86
2022/05/01 11:35:11;;;;;;;3.58;3.10;;;;;;;23.42;29.98;99877.34;5013813;28;20538;-85
2022/05/01 11:38:06;;;;;;;4.40;3.13;;;;;;;22.82;29.43;99787.53;5013835;28;20033;-86
2022/05/01 11:40:32;;;;;;;3.20;2.90;;;;;;;23.32;30.09;99872.66;5031548;28;20406;-86
2022/05/01 11:43:18;;;;;;;4.13;3.42;;;;;;;22.83;30.13;99786.47;5031264;28;20031;-86
2022/05/01 11:45:47;;;;;;;2.90;2.65;;;;;;;23.28;30.33;99871.53;5013615;28;20052;-86
2022/05/01 11:48:20;;;;;;;3.35;2.70;;;;;;;22.52;30.36;99766.41;5031567;28;20479;-86
2022/05/01 11:50:51;;;;;;;3.13;2.65;;;;;;;23.24;30.66;99851.56;5013750;28;20018;-86
2022/05/01 11:53:31;;;;;;;2.60;2.38;;;;;;;23.80;30.16;99851.34;5031803;28;20037;-86